createdAt,value
2023-01-09T00:01:56.421Z,4.30
2023-01-09T00:04:29.072Z,4.30
2023-01-09T00:07:03.163Z,4.20
2023-01-09T00:09:29.880Z,4.20
2023-01-09T00:11:56.992Z,4.20
2023-01-09T00:14:31.115Z,4.20
2023-01-09T00:17:04.246Z,4.20
2023-01-09T00:19:30.866Z,4.20
2023-01-09T00:22:04.143Z,4.30
2023-01-09T00:24:30.782Z,4.20
2023-01-09T00:27:04.170Z,4.20
2023-01-09T00:29:31.110Z,4.20
2023-01-09T00:31:57.928Z,4.20
2023-01-09T00:34:32.126Z,4.20
2023-01-09T00:36:58.717Z,4.20
2023-01-09T00:39:32.132Z,4.10
2023-01-09T00:41:58.753Z,4.10
2023-01-09T00:44:48.117Z,4.10
2023-01-09T00:47:27.093Z,4.10
2023-01-09T00:50:02.097Z,4.10
2023-01-09T00:52:44.173Z,4.10
2023-01-09T00:55:11.504Z,4.10
2023-01-09T00:57:45.135Z,4.00
2023-01-09T01:00:12.394Z,4.00
2023-01-09T01:02:39.032Z,3.90
2023-01-09T01:05:32.175Z,3.90
2023-01-09T01:08:05.146Z,3.90
2023-01-09T01:10:31.797Z,3.90
2023-01-09T01:13:05.163Z,3.80
2023-01-09T01:15:38.083Z,3.90
2023-01-09T01:18:11.150Z,3.90
2023-01-09T01:20:40.831Z,3.80
2023-01-09T01:23:07.829Z,3.80
2023-01-09T01:25:44.104Z,3.80
2023-01-09T01:28:17.132Z,3.80
2023-01-09T01:30:50.164Z,3.70
2023-01-09T01:33:23.141Z,3.70
2023-01-09T01:36:03.072Z,3.70
2023-01-09T01:38:37.136Z,3.70
2023-01-09T01:41:04.787Z,3.60
2023-01-09T01:44:02.190Z,3.60
2023-01-09T01:46:37.222Z,3.70
2023-01-09T01:49:07.299Z,3.70
2023-01-09T01:51:58.140Z,3.70
2023-01-09T01:54:28.659Z,3.70
2023-01-09T01:57:05.112Z,3.70
2023-01-09T02:00:02.143Z,3.70
2023-01-09T02:02:31.411Z,3.60
2023-01-09T02:05:00.103Z,3.70
2023-01-09T02:07:33.129Z,3.60
2023-01-09T02:10:07.149Z,3.60
2023-01-09T02:12:33.766Z,3.60
2023-01-09T02:15:13.075Z,3.50
2023-01-09T02:18:08.814Z,3.50
2023-01-09T02:20:59.093Z,3.60
2023-01-09T02:23:34.551Z,3.60
2023-01-09T02:26:10.229Z,3.60
2023-01-09T02:29:02.130Z,3.60
2023-01-09T02:31:40.726Z,3.60
2023-01-09T02:34:46.095Z,3.70
2023-01-09T02:37:32.255Z,3.60
2023-01-09T02:40:38.078Z,3.70
2023-01-09T02:43:13.186Z,3.60
2023-01-09T02:45:39.949Z,3.60
2023-01-09T02:48:08.199Z,3.60
2023-01-09T02:50:54.151Z,3.60
2023-01-09T02:53:50.416Z,3.60
2023-01-09T02:56:33.071Z,3.60
2023-01-09T02:59:41.077Z,3.60
2023-01-09T03:02:29.568Z,3.60
2023-01-09T03:05:13.137Z,3.60
2023-01-09T03:07:52.170Z,3.60
2023-01-09T03:10:35.097Z,3.60
2023-01-09T03:13:03.199Z,3.70
2023-01-09T03:15:41.164Z,3.70
2023-01-09T03:18:10.520Z,3.70
2023-01-09T03:20:45.138Z,3.70
2023-01-09T03:23:25.158Z,3.60
2023-01-09T03:25:58.191Z,3.60
2023-01-09T03:28:31.067Z,3.70
2023-01-09T03:31:04.118Z,3.70
2023-01-09T03:33:30.722Z,3.80
2023-01-09T03:36:04.072Z,3.80
2023-01-09T03:38:30.770Z,3.80
2023-01-09T03:41:04.133Z,3.80
2023-01-09T03:43:31.095Z,3.80
2023-01-09T03:45:57.807Z,3.80
2023-01-09T03:48:31.163Z,3.90
2023-01-09T03:51:11.164Z,4.00
2023-01-09T03:53:44.646Z,4.00
2023-01-09T03:56:18.149Z,4.10
2023-01-09T03:58:44.785Z,4.10
2023-01-09T04:01:21.244Z,4.20
2023-01-09T04:03:48.006Z,4.30
2023-01-09T04:06:14.666Z,4.30
2023-01-09T04:08:48.131Z,4.30
2023-01-09T04:11:17.533Z,4.40
2023-01-09T04:13:45.108Z,4.40
2023-01-09T04:16:18.131Z,4.40
2023-01-09T04:18:44.745Z,4.40
2023-01-09T04:21:18.154Z,4.40
2023-01-09T04:23:45.420Z,4.50
2023-01-09T04:26:12.180Z,4.50
2023-01-09T04:28:45.173Z,4.50
2023-01-09T04:31:11.895Z,4.50
2023-01-09T04:33:38.570Z,4.50
2023-01-09T04:36:12.091Z,4.50
2023-01-09T04:38:45.128Z,4.60
2023-01-09T04:41:31.742Z,4.60
2023-01-09T04:44:05.127Z,4.60
2023-01-09T04:46:38.195Z,4.60
2023-01-09T04:49:04.942Z,4.60
2023-01-09T04:51:45.131Z,4.60
2023-01-09T04:54:11.755Z,4.60
2023-01-09T04:56:38.777Z,4.60
2023-01-09T04:59:13.054Z,4.70
2023-01-09T05:01:39.981Z,4.70
2023-01-09T05:04:13.229Z,4.70
2023-01-09T05:06:46.101Z,4.70
2023-01-09T05:09:19.175Z,4.70
2023-01-09T05:11:52.089Z,4.70
2023-01-09T05:14:25.155Z,4.70
2023-01-09T05:16:58.083Z,4.80
2023-01-09T05:19:31.186Z,4.80
2023-01-09T05:21:57.846Z,4.80
2023-01-09T05:24:24.454Z,4.80
2023-01-09T05:26:58.147Z,4.80
2023-01-09T05:29:25.107Z,4.80
2023-01-09T05:31:52.790Z,4.90
2023-01-09T05:34:26.124Z,4.90
2023-01-09T05:36:52.813Z,4.90
2023-01-09T05:39:26.152Z,4.90
2023-01-09T05:41:59.062Z,4.90
2023-01-09T05:44:32.109Z,5.00
2023-01-09T05:47:05.073Z,5.00
2023-01-09T05:49:31.682Z,5.00
2023-01-09T05:52:11.074Z,5.00
2023-01-09T05:54:51.134Z,5.00
2023-01-09T05:57:24.140Z,5.00
2023-01-09T05:59:50.753Z,5.00
2023-01-09T06:02:17.477Z,5.10
2023-01-09T06:04:51.175Z,5.10
2023-01-09T06:07:21.025Z,5.10
2023-01-09T06:09:48.780Z,5.10
2023-01-09T06:12:22.183Z,5.10
2023-01-09T06:14:48.820Z,5.20
2023-01-09T06:17:15.477Z,5.10
2023-01-09T06:19:49.068Z,5.10
2023-01-09T06:22:15.664Z,5.20
2023-01-09T06:24:49.287Z,5.20
2023-01-09T06:27:15.886Z,5.20
2023-01-09T06:29:49.066Z,5.10
2023-01-09T06:32:15.783Z,5.20
2023-01-09T06:34:49.067Z,5.20
2023-01-09T06:37:15.666Z,5.20
2023-01-09T06:39:49.083Z,5.20
2023-01-09T06:42:15.744Z,5.20
2023-01-09T06:44:49.165Z,5.20
2023-01-09T06:47:15.817Z,5.20
2023-01-09T06:49:49.056Z,5.20
2023-01-09T06:52:22.488Z,5.20
2023-01-09T06:54:56.117Z,5.20
2023-01-09T06:57:22.735Z,5.20
2023-01-09T06:59:49.357Z,5.20
2023-01-09T07:02:26.158Z,5.20
2023-01-09T07:04:52.825Z,5.20
2023-01-09T07:07:20.389Z,5.20
2023-01-09T07:09:53.159Z,5.20
2023-01-09T07:12:19.849Z,5.20
2023-01-09T07:14:46.494Z,5.20
2023-01-09T07:17:20.139Z,5.20
2023-01-09T07:19:46.756Z,5.30
2023-01-09T07:22:13.418Z,5.30
2023-01-09T07:24:47.195Z,5.30
2023-01-09T07:27:13.807Z,5.30
2023-01-09T07:29:40.456Z,5.30
2023-01-09T07:32:14.189Z,5.30
2023-01-09T07:34:41.034Z,5.30
2023-01-09T07:37:07.649Z,5.40
2023-01-09T07:39:41.140Z,5.40
2023-01-09T07:42:07.780Z,5.40
2023-01-09T07:44:34.414Z,5.40
2023-01-09T07:47:08.129Z,5.40
2023-01-09T07:49:34.781Z,5.50
2023-01-09T07:52:15.121Z,5.50
2023-01-09T07:54:48.839Z,5.50
2023-01-09T07:57:22.171Z,5.50
2023-01-09T07:59:48.836Z,5.50
2023-01-09T08:02:22.273Z,5.50
2023-01-09T08:04:48.995Z,5.60
2023-01-09T08:07:15.620Z,5.60
2023-01-09T08:09:49.183Z,5.60
2023-01-09T08:12:15.886Z,5.60
2023-01-09T08:14:42.557Z,5.60
2023-01-09T08:17:17.173Z,5.60
2023-01-09T08:19:44.357Z,5.70
2023-01-09T08:22:11.729Z,5.70
2023-01-09T08:24:45.139Z,5.70
2023-01-09T08:27:11.795Z,5.70
2023-01-09T08:29:44.553Z,5.70
2023-01-09T08:32:18.054Z,5.70
2023-01-09T08:34:44.740Z,5.80
2023-01-09T08:37:18.135Z,5.80
2023-01-09T08:39:44.821Z,5.80
2023-01-09T08:42:37.123Z,5.80
2023-01-09T08:45:22.504Z,5.90
2023-01-09T08:47:56.153Z,5.90
2023-01-09T08:50:29.120Z,5.90
2023-01-09T08:53:09.095Z,5.90
2023-01-09T08:55:35.775Z,5.90
2023-01-09T08:58:15.123Z,6.00
2023-01-09T09:00:42.156Z,6.00
2023-01-09T09:03:16.070Z,6.10
2023-01-09T09:05:49.127Z,6.10
2023-01-09T09:08:23.085Z,6.10
2023-01-09T09:10:49.681Z,6.10
2023-01-09T09:13:23.202Z,6.20
2023-01-09T09:15:56.193Z,6.10
2023-01-09T09:18:22.859Z,6.10
2023-01-09T09:20:56.163Z,6.10
2023-01-09T09:23:23.606Z,6.20
2023-01-09T09:25:50.219Z,6.20
2023-01-09T09:28:23.226Z,6.20
2023-01-09T09:30:49.880Z,6.20
2023-01-09T09:33:16.475Z,6.30
2023-01-09T09:35:50.059Z,6.30
2023-01-09T09:38:16.799Z,6.30
2023-01-09T09:41:03.167Z,6.30
2023-01-09T09:44:27.781Z,6.30
2023-01-09T09:47:21.156Z,6.30
2023-01-09T09:50:25.170Z,6.40
2023-01-09T09:53:27.118Z,6.40
2023-01-09T09:56:01.105Z,6.40
2023-01-09T09:58:39.983Z,6.30
2023-01-09T10:01:15.069Z,6.40
2023-01-09T10:03:50.249Z,6.40
2023-01-09T10:06:35.092Z,6.40
2023-01-09T10:09:18.872Z,6.40
2023-01-09T10:12:10.165Z,6.50
2023-01-09T10:14:36.764Z,6.60
2023-01-09T10:17:19.069Z,6.50
2023-01-09T10:20:11.701Z,6.60
2023-01-09T10:22:55.095Z,6.60
2023-01-09T10:25:44.956Z,6.60
2023-01-09T10:28:24.121Z,6.70
2023-01-09T10:31:05.078Z,6.70
2023-01-09T10:34:03.086Z,6.70
2023-01-09T10:36:42.585Z,6.70
2023-01-09T10:39:31.137Z,6.70
2023-01-09T10:42:12.324Z,6.70
2023-01-09T10:44:49.213Z,6.80
2023-01-09T10:47:28.124Z,6.70
2023-01-09T10:49:55.857Z,6.70
2023-01-09T10:52:47.190Z,6.80
2023-01-09T10:55:45.040Z,6.80
2023-01-09T10:58:20.104Z,6.90
2023-01-09T11:00:56.067Z,6.90
2023-01-09T11:03:30.312Z,7.00
2023-01-09T11:06:06.083Z,7.10
2023-01-09T11:08:42.700Z,7.10
2023-01-09T11:11:17.212Z,7.10
2023-01-09T11:13:48.472Z,7.10
2023-01-09T11:16:28.107Z,7.10
2023-01-09T11:19:00.970Z,7.20
2023-01-09T11:21:44.198Z,7.20
2023-01-09T11:24:23.781Z,7.30
2023-01-09T11:27:00.149Z,7.30
2023-01-09T11:29:26.793Z,7.30
2023-01-09T11:32:05.086Z,7.40
2023-01-09T11:34:40.056Z,7.50
2023-01-09T11:37:10.275Z,7.50
2023-01-09T11:39:48.158Z,7.60
2023-01-09T11:42:42.646Z,7.60
2023-01-09T11:45:30.075Z,7.70
2023-01-09T11:47:56.858Z,7.70
2023-01-09T11:50:33.155Z,7.70
2023-01-09T11:53:16.136Z,7.70
2023-01-09T11:55:51.069Z,7.70
2023-01-09T11:58:21.668Z,7.70
2023-01-09T12:01:12.125Z,7.80
2023-01-09T12:03:50.088Z,7.80
2023-01-09T12:06:47.143Z,7.80
2023-01-09T12:09:38.506Z,7.80
2023-01-09T12:12:36.086Z,7.70
2023-01-09T12:15:29.064Z,7.70
2023-01-09T12:18:33.098Z,7.70
2023-01-09T12:21:12.084Z,7.80
2023-01-09T12:24:12.198Z,7.80
2023-01-09T12:27:12.162Z,7.90
2023-01-09T12:30:11.151Z,7.90
2023-01-09T12:33:28.098Z,8.00
2023-01-09T12:36:21.147Z,8.00
2023-01-09T12:39:29.095Z,8.00
2023-01-09T12:42:17.503Z,8.00
2023-01-09T12:45:06.218Z,7.90
2023-01-09T12:47:45.854Z,7.90
2023-01-09T12:50:34.125Z,7.90
2023-01-09T12:53:31.072Z,7.90
2023-01-09T12:56:16.199Z,7.90
2023-01-09T12:58:51.974Z,8.00
2023-01-09T13:01:34.625Z,8.00
2023-01-09T13:04:33.073Z,8.10
2023-01-09T13:07:11.238Z,8.10
2023-01-09T13:09:51.509Z,8.10
2023-01-09T13:12:28.122Z,8.10
2023-01-09T13:15:02.570Z,8.10
2023-01-09T13:17:53.119Z,8.10
2023-01-09T13:20:38.104Z,8.10
2023-01-09T13:23:06.625Z,8.10
2023-01-09T13:25:48.116Z,8.10
2023-01-09T13:28:20.989Z,8.10
2023-01-09T13:31:41.997Z,8.10
2023-01-09T13:34:22.986Z,8.00
2023-01-09T13:36:59.025Z,8.00
2023-01-09T13:39:35.009Z,8.00
2023-01-09T13:42:31.893Z,7.90
2023-01-09T13:45:36.976Z,7.90
2023-01-09T13:48:17.459Z,7.90
2023-01-09T13:50:52.015Z,7.90
2023-01-09T13:53:24.991Z,7.90
2023-01-09T13:55:57.623Z,7.90
2023-01-09T13:58:57.979Z,7.90
2023-01-09T14:01:24.657Z,7.90
2023-01-09T14:04:16.901Z,7.90
2023-01-09T14:07:25.952Z,7.90
2023-01-09T14:09:59.526Z,7.90
2023-01-09T14:12:35.078Z,7.80
2023-01-09T14:15:10.945Z,7.80
2023-01-09T14:17:38.689Z,7.80
2023-01-09T14:20:09.055Z,7.80
2023-01-09T14:22:55.859Z,7.80
2023-01-09T14:25:26.014Z,7.80
2023-01-09T14:28:01.970Z,7.80
2023-01-09T14:30:49.897Z,7.70
2023-01-09T14:33:25.900Z,7.60
2023-01-09T14:36:03.424Z,7.60
2023-01-09T14:38:44.913Z,7.60
2023-01-09T14:41:51.716Z,7.60
2023-01-09T14:44:46.942Z,7.50
2023-01-09T14:47:37.244Z,7.40
2023-01-09T14:50:13.039Z,7.40
2023-01-09T14:52:49.256Z,7.40
2023-01-09T14:55:50.917Z,7.30
2023-01-09T14:58:17.473Z,7.30
2023-01-09T15:01:19.046Z,7.30
2023-01-09T15:03:49.495Z,7.30
2023-01-09T15:06:29.971Z,7.20
2023-01-09T15:09:02.668Z,7.20
2023-01-09T15:11:36.979Z,7.10
2023-01-09T15:14:05.353Z,7.10
2023-01-09T15:16:32.717Z,7.00
2023-01-09T15:19:13.003Z,7.00
2023-01-09T15:21:45.950Z,7.00
2023-01-09T15:24:28.053Z,6.90
2023-01-09T15:27:01.131Z,6.90
2023-01-09T15:29:47.969Z,6.90
2023-01-09T15:32:26.889Z,6.90
2023-01-09T15:35:01.970Z,6.80
2023-01-09T15:37:39.132Z,6.80
2023-01-09T15:40:14.929Z,6.70
2023-01-09T15:43:02.987Z,6.70
2023-01-09T15:45:33.774Z,6.60
2023-01-09T15:48:24.883Z,6.60
2023-01-09T15:50:59.307Z,6.60
2023-01-09T15:53:34.989Z,6.60
2023-01-09T15:56:30.003Z,6.50
2023-01-09T15:58:58.183Z,6.50
2023-01-09T16:01:40.972Z,6.50
2023-01-09T16:04:13.852Z,6.50
2023-01-09T16:06:56.911Z,6.40
2023-01-09T16:09:37.912Z,6.40
2023-01-09T16:12:11.055Z,6.40
2023-01-09T16:14:45.989Z,6.40
2023-01-09T16:17:17.715Z,6.40
2023-01-09T16:19:54.988Z,6.30
2023-01-09T16:22:34.053Z,6.30
2023-01-09T16:25:09.934Z,6.30
2023-01-09T16:27:36.594Z,6.30
2023-01-09T16:30:39.957Z,6.30
2023-01-09T16:33:22.394Z,6.20
2023-01-09T16:35:56.897Z,6.20
2023-01-09T16:38:30.971Z,6.20
2023-01-09T16:41:31.797Z,6.20
2023-01-09T16:44:05.073Z,6.20
2023-01-09T16:46:34.288Z,6.20
2023-01-09T16:49:07.909Z,6.10
2023-01-09T16:51:34.589Z,6.10
2023-01-09T16:54:07.902Z,6.10
2023-01-09T16:56:36.723Z,6.00
2023-01-09T16:59:09.887Z,6.00
2023-01-09T17:01:36.588Z,5.90
2023-01-09T17:04:19.948Z,5.80
2023-01-09T17:06:48.319Z,5.60
2023-01-09T17:09:18.070Z,5.50
2023-01-09T17:11:51.942Z,5.40
2023-01-09T17:14:25.567Z,5.40
2023-01-09T17:16:59.004Z,5.20
2023-01-09T17:19:31.950Z,5.20
2023-01-09T17:21:58.780Z,5.10
2023-01-09T17:24:50.950Z,5.00
2023-01-09T17:27:48.720Z,4.90
2023-01-09T17:30:29.928Z,4.80
2023-01-09T17:33:04.852Z,4.70
2023-01-09T17:35:37.930Z,4.70
2023-01-09T17:38:04.536Z,4.60
2023-01-09T17:40:38.045Z,4.60
2023-01-09T17:43:10.893Z,4.50
2023-01-09T17:45:41.091Z,4.40
2023-01-09T17:48:25.013Z,4.40
2023-01-09T17:50:58.012Z,4.30
2023-01-09T17:53:32.053Z,4.20
2023-01-09T17:56:00.124Z,4.20
2023-01-09T17:58:36.960Z,4.10
2023-01-09T18:01:10.020Z,4.10
2023-01-09T18:03:42.967Z,4.00
2023-01-09T18:06:11.894Z,4.00
2023-01-09T18:08:46.008Z,4.00
2023-01-09T18:11:24.069Z,3.90
2023-01-09T18:13:54.015Z,3.90
2023-01-09T18:16:32.910Z,3.90
2023-01-09T18:19:07.959Z,3.90
2023-01-09T18:21:34.625Z,3.90
2023-01-09T18:24:07.899Z,3.90
2023-01-09T18:26:34.496Z,3.80
2023-01-09T18:29:07.951Z,3.80
2023-01-09T18:31:41.406Z,3.70
2023-01-09T18:34:16.024Z,3.60
2023-01-09T18:36:43.156Z,3.60
2023-01-09T18:39:11.502Z,3.60
2023-01-09T18:41:45.016Z,3.60
2023-01-09T18:44:11.613Z,3.60
2023-01-09T18:46:39.329Z,3.60
2023-01-09T18:49:12.881Z,3.60
2023-01-09T18:51:39.888Z,3.60
2023-01-09T18:54:16.000Z,3.60
2023-01-09T18:56:49.969Z,3.60
2023-01-09T18:59:16.561Z,3.60
2023-01-09T19:01:43.355Z,3.60
2023-01-09T19:04:17.129Z,3.60
2023-01-09T19:06:43.817Z,3.60
2023-01-09T19:09:17.907Z,3.60
2023-01-09T19:11:44.845Z,3.60
2023-01-09T19:14:18.901Z,3.60
2023-01-09T19:16:45.673Z,3.60
2023-01-09T19:19:19.017Z,3.50
2023-01-09T19:21:46.327Z,3.50
2023-01-09T19:24:21.182Z,3.50
2023-01-09T19:26:48.148Z,3.40
2023-01-09T19:29:28.959Z,3.50
2023-01-09T19:32:02.651Z,3.50
2023-01-09T19:34:35.921Z,3.40
2023-01-09T19:37:09.444Z,3.50
2023-01-09T19:39:42.405Z,3.60
2023-01-09T19:42:15.951Z,3.70
2023-01-09T19:44:42.557Z,3.80
2023-01-09T19:47:10.925Z,3.80
2023-01-09T19:49:44.914Z,3.80
2023-01-09T19:52:18.959Z,3.90
2023-01-09T19:54:46.603Z,3.90
2023-01-09T19:57:13.223Z,3.90
2023-01-09T19:59:46.895Z,3.90
2023-01-09T20:04:48.519Z,3.90
2023-01-09T20:07:15.275Z,3.90
2023-01-09T20:09:47.899Z,3.90
2023-01-09T20:12:20.885Z,4.00
2023-01-09T20:14:47.576Z,4.00
2023-01-09T20:17:21.070Z,4.00
2023-01-09T20:19:47.949Z,3.90
2023-01-09T20:22:20.893Z,3.90
2023-01-09T20:24:47.517Z,3.90
2023-01-09T20:27:21.009Z,3.90
2023-01-09T20:29:55.111Z,3.90
2023-01-09T20:32:36.879Z,3.90
2023-01-09T20:35:03.800Z,3.80
2023-01-09T20:37:37.954Z,3.80
2023-01-09T20:40:05.037Z,3.80
2023-01-09T20:42:31.637Z,3.80
2023-01-09T20:45:05.078Z,3.80
2023-01-09T20:47:31.738Z,3.80
2023-01-09T20:50:04.905Z,3.80
2023-01-09T20:52:31.524Z,3.80
2023-01-09T20:55:04.977Z,3.80
2023-01-09T20:57:31.641Z,3.80
2023-01-09T21:00:04.935Z,3.80
2023-01-09T21:02:31.544Z,3.80
2023-01-09T21:04:58.316Z,3.80
2023-01-09T21:07:31.977Z,3.90
2023-01-09T21:09:58.565Z,3.90
2023-01-09T21:12:27.429Z,4.00
2023-01-09T21:15:09.002Z,4.00
2023-01-09T21:17:43.921Z,4.10
2023-01-09T21:20:20.880Z,4.20
2023-01-09T21:22:47.880Z,4.20
2023-01-09T21:25:21.917Z,4.30
2023-01-09T21:27:51.528Z,4.30
2023-01-09T21:30:25.016Z,4.30
2023-01-09T21:33:04.885Z,4.40
2023-01-09T21:35:37.896Z,4.40
2023-01-09T21:38:10.928Z,4.40
2023-01-09T21:40:43.997Z,4.50
2023-01-09T21:43:40.213Z,4.50
2023-01-09T21:46:36.944Z,4.60
2023-01-09T21:49:11.889Z,4.60
2023-01-09T21:51:41.088Z,4.70
2023-01-09T21:54:15.893Z,4.60
2023-01-09T21:56:42.507Z,4.70
2023-01-09T21:59:16.952Z,4.70
2023-01-09T22:01:43.971Z,4.70
2023-01-09T22:04:14.398Z,4.70
2023-01-09T22:06:47.941Z,4.70
2023-01-09T22:09:14.776Z,4.70
2023-01-09T22:11:49.869Z,4.70
2023-01-09T22:14:19.098Z,4.70
2023-01-09T22:16:53.056Z,4.70
2023-01-09T22:19:28.054Z,4.70
2023-01-09T22:22:00.889Z,4.70
2023-01-09T22:24:27.562Z,4.70
2023-01-09T22:27:00.905Z,4.80
2023-01-09T22:29:27.556Z,4.80
2023-01-09T22:32:06.930Z,4.80
2023-01-09T22:34:33.677Z,4.90
2023-01-09T22:37:00.308Z,4.80
2023-01-09T22:39:33.887Z,4.90
2023-01-09T22:42:06.940Z,4.80
2023-01-09T22:44:33.547Z,4.80
2023-01-09T22:47:06.887Z,4.80
2023-01-09T22:49:51.346Z,4.80
2023-01-09T22:52:24.897Z,4.90
2023-01-09T22:54:51.563Z,4.90
2023-01-09T22:57:25.195Z,5.00
2023-01-09T22:59:51.797Z,5.00
2023-01-09T23:02:18.587Z,5.00
2023-01-09T23:04:51.855Z,5.10
2023-01-09T23:07:24.947Z,5.10
2023-01-09T23:09:51.548Z,5.20
2023-01-09T23:12:18.247Z,5.20
2023-01-09T23:14:51.956Z,5.20
2023-01-09T23:17:18.627Z,5.30
2023-01-09T23:19:51.891Z,5.40
2023-01-09T23:22:18.484Z,5.40
2023-01-09T23:24:51.968Z,5.40
2023-01-09T23:27:18.578Z,5.50
2023-01-09T23:29:58.916Z,5.40
2023-01-09T23:32:32.333Z,5.50
2023-01-09T23:35:05.906Z,5.50
2023-01-09T23:37:32.517Z,5.50
2023-01-09T23:40:05.941Z,5.60
2023-01-09T23:42:50.961Z,5.60
2023-01-09T23:45:23.896Z,5.60
2023-01-09T23:47:56.933Z,5.70
2023-01-09T23:50:29.900Z,5.70
2023-01-09T23:52:56.506Z,5.70
2023-01-09T23:55:29.921Z,5.70
2023-01-09T23:57:56.872Z,5.70
